createdAt,value
2019-01-08T00:02:24.198Z,13.40
2019-01-08T00:04:56.412Z,11.40
2019-01-08T00:07:28.360Z,12.20
2019-01-08T00:10:00.777Z,12.00
2019-01-08T00:12:33.021Z,11.40
2019-01-08T00:15:05.201Z,11.60
2019-01-08T00:17:37.296Z,11.00
2019-01-08T00:20:09.603Z,13.00
2019-01-08T00:22:41.574Z,13.00
2019-01-08T00:25:13.560Z,12.20
2019-01-08T00:27:45.557Z,11.00
2019-01-08T00:30:17.602Z,11.00
2019-01-08T00:32:49.584Z,13.00
2019-01-08T00:35:21.809Z,11.00
2019-01-08T00:37:54.268Z,11.00
2019-01-08T00:40:26.960Z,11.40
2019-01-08T00:42:58.933Z,10.20
2019-01-08T00:45:31.007Z,9.60
2019-01-08T00:48:02.996Z,11.00
2019-01-08T00:50:34.993Z,9.80
2019-01-08T00:53:06.955Z,12.20
2019-01-08T00:55:38.961Z,11.40
2019-01-08T00:58:10.957Z,10.40
2019-01-08T01:00:42.986Z,11.00
2019-01-08T01:03:15.079Z,8.80
2019-01-08T01:05:47.451Z,8.20
2019-01-08T01:08:19.420Z,9.40
2019-01-08T01:10:51.471Z,10.60
2019-01-08T01:13:23.635Z,9.40
2019-01-08T01:15:56.030Z,7.00
2019-01-08T01:18:28.001Z,9.20
2019-01-08T01:21:00.116Z,10.20
2019-01-08T01:23:32.268Z,6.60
2019-01-08T01:26:04.285Z,8.00
2019-01-08T01:28:36.477Z,8.40
2019-01-08T01:31:08.448Z,7.80
2019-01-08T01:33:40.414Z,9.00
2019-01-08T01:36:12.907Z,6.00
2019-01-08T01:38:45.287Z,7.00
2019-01-08T01:41:17.472Z,8.00
2019-01-08T01:43:49.430Z,9.60
2019-01-08T01:46:21.651Z,7.80
2019-01-08T01:48:53.832Z,7.80
2019-01-08T01:51:26.013Z,7.80
2019-01-08T01:53:57.983Z,7.60
2019-01-08T01:56:29.969Z,9.00
2019-01-08T01:59:08.278Z,8.00
2019-01-08T02:01:35.738Z,7.60
2019-01-08T02:04:07.983Z,6.80
2019-01-08T02:06:40.378Z,6.00
2019-01-08T02:09:12.570Z,7.40
2019-01-08T02:11:44.575Z,9.40
2019-01-08T02:14:16.801Z,8.80
2019-01-08T02:16:49.414Z,7.40
2019-01-08T02:19:21.564Z,8.00
2019-01-08T02:21:53.783Z,4.80
2019-01-08T02:24:25.747Z,8.40
2019-01-08T02:26:57.960Z,6.80
2019-01-08T02:29:30.152Z,8.00
2019-01-08T02:32:02.342Z,7.20
2019-01-08T02:34:34.514Z,7.40
2019-01-08T02:37:09.090Z,7.40
2019-01-08T02:39:41.329Z,8.00
2019-01-08T02:42:13.517Z,6.40
2019-01-08T02:44:45.750Z,3.80
2019-01-08T02:47:18.239Z,6.80
2019-01-08T02:49:50.494Z,7.20
2019-01-08T02:52:23.506Z,7.40
2019-01-08T02:54:55.698Z,6.00
2019-01-08T02:57:27.916Z,5.40
2019-01-08T03:00:00.083Z,7.40
2019-01-08T03:02:32.483Z,6.20
2019-01-08T03:05:04.703Z,7.40
2019-01-08T03:07:37.133Z,6.80
2019-01-08T03:10:09.288Z,7.00
2019-01-08T03:12:41.472Z,6.00
2019-01-08T03:15:13.837Z,6.00
2019-01-08T03:17:46.649Z,5.40
2019-01-08T03:20:18.964Z,5.20
2019-01-08T03:22:51.125Z,6.00
2019-01-08T03:25:23.289Z,5.40
2019-01-08T03:27:55.502Z,5.80
2019-01-08T03:30:27.679Z,5.60
2019-01-08T03:32:59.947Z,3.00
2019-01-08T03:35:32.098Z,5.20
2019-01-08T03:38:04.488Z,5.80
2019-01-08T03:40:36.646Z,4.20
2019-01-08T03:43:09.660Z,4.40
2019-01-08T03:45:41.686Z,16.40
2019-01-08T03:48:14.690Z,31.75
2019-01-08T03:50:51.157Z,38.75
2019-01-08T03:53:28.103Z,53.50
2019-01-08T03:56:18.739Z,58.50
2019-01-08T03:58:51.200Z,66.50
2019-01-08T04:01:24.206Z,66.25
2019-01-08T04:03:56.257Z,68.50
2019-01-08T04:06:28.435Z,69.50
2019-01-08T04:09:00.598Z,67.50
2019-01-08T04:11:33.938Z,66.00
2019-01-08T04:14:05.965Z,66.50
2019-01-08T04:16:38.112Z,64.50
2019-01-08T04:19:10.402Z,64.00
2019-01-08T04:21:42.403Z,61.75
2019-01-08T04:24:14.462Z,91.25
2019-01-08T04:26:46.518Z,142.50
2019-01-08T04:29:18.569Z,192.40
2019-01-08T04:31:50.594Z,242.33
2019-01-08T04:34:23.644Z,246.60
2019-01-08T04:36:55.677Z,262.50
2019-01-08T04:39:28.003Z,275.40
2019-01-08T04:42:00.124Z,269.60
2019-01-08T04:44:32.654Z,265.83
2019-01-08T04:47:04.663Z,261.33
2019-01-08T04:49:36.706Z,265.33
2019-01-08T04:52:08.723Z,263.00
2019-01-08T04:54:40.782Z,258.50
2019-01-08T04:57:12.814Z,252.80
2019-01-08T04:59:44.851Z,243.80
2019-01-08T05:02:17.230Z,246.80
2019-01-08T05:04:49.241Z,244.60
2019-01-08T05:07:21.251Z,243.60
2019-01-08T05:09:53.452Z,238.00
2019-01-08T05:12:25.547Z,239.40
2019-01-08T05:14:57.607Z,231.80
2019-01-08T05:17:29.917Z,236.20
2019-01-08T05:20:02.116Z,234.50
2019-01-08T05:22:34.119Z,233.60
2019-01-08T05:25:06.241Z,220.80
2019-01-08T05:27:38.232Z,216.60
2019-01-08T05:30:11.486Z,219.00
2019-01-08T05:32:43.860Z,213.20
2019-01-08T05:35:15.918Z,214.20
2019-01-08T05:37:47.903Z,217.20
2019-01-08T05:40:20.079Z,205.20
2019-01-08T05:42:52.071Z,212.00
2019-01-08T05:45:24.133Z,210.00
2019-01-08T05:47:56.146Z,201.00
2019-01-08T05:50:28.231Z,203.00
2019-01-08T05:53:00.227Z,199.40
2019-01-08T05:55:32.294Z,184.60
2019-01-08T05:58:05.463Z,183.80
2019-01-08T06:00:37.540Z,179.60
2019-01-08T06:03:10.067Z,181.20
2019-01-08T06:05:42.127Z,183.20
2019-01-08T06:08:14.178Z,178.60
2019-01-08T06:10:46.389Z,172.00
2019-01-08T06:13:18.555Z,173.60
2019-01-08T06:15:50.749Z,166.00
2019-01-08T06:18:22.949Z,160.25
2019-01-08T06:20:55.318Z,163.50
2019-01-08T06:23:27.344Z,157.75
2019-01-08T06:25:59.496Z,158.50
2019-01-08T06:28:31.915Z,151.50
2019-01-08T06:31:03.960Z,147.75
2019-01-08T06:33:35.993Z,148.00
2019-01-08T06:36:09.193Z,149.75
2019-01-08T06:38:41.203Z,142.25
2019-01-08T06:41:13.352Z,138.50
2019-01-08T06:43:45.348Z,140.75
2019-01-08T06:46:17.362Z,133.25
2019-01-08T06:48:49.365Z,134.75
2019-01-08T06:51:21.407Z,138.50
2019-01-08T06:53:53.363Z,131.50
2019-01-08T06:56:25.470Z,120.50
2019-01-08T06:58:57.462Z,120.25
2019-01-08T07:01:29.664Z,123.50
2019-01-08T07:04:01.663Z,120.50
2019-01-08T07:06:33.692Z,121.00
2019-01-08T07:09:06.289Z,117.25
2019-01-08T07:11:38.343Z,113.75
2019-01-08T07:14:11.394Z,111.00
2019-01-08T07:16:43.453Z,114.75
2019-01-08T07:19:15.719Z,114.00
2019-01-08T07:21:47.917Z,109.75
2019-01-08T07:24:19.922Z,108.25
2019-01-08T07:26:51.967Z,110.75
2019-01-08T07:29:23.988Z,108.25
2019-01-08T07:31:56.193Z,104.50
2019-01-08T07:34:28.184Z,106.25
2019-01-08T07:37:00.338Z,99.50
2019-01-08T07:39:32.347Z,98.50
2019-01-08T07:42:04.362Z,88.25
2019-01-08T07:44:36.330Z,78.25
2019-01-08T07:47:08.375Z,73.75
2019-01-08T07:49:40.480Z,74.25
2019-01-08T07:52:12.870Z,74.75
2019-01-08T07:54:44.965Z,77.00
2019-01-08T07:57:17.111Z,74.75
2019-01-08T07:59:49.100Z,72.00
2019-01-08T08:02:22.092Z,71.75
2019-01-08T08:04:54.148Z,69.75
2019-01-08T08:07:26.263Z,74.50
2019-01-08T08:09:58.280Z,73.25
2019-01-08T08:12:30.274Z,68.50
2019-01-08T08:17:50.932Z,68.00
2019-01-08T08:20:24.114Z,69.00
2019-01-08T08:22:56.487Z,71.00
2019-01-08T08:25:28.456Z,63.25
2019-01-08T08:28:00.590Z,63.25
2019-01-08T08:30:32.608Z,64.00
2019-01-08T08:33:04.985Z,61.00
2019-01-08T08:35:36.973Z,66.00
2019-01-08T08:38:08.967Z,62.50
2019-01-08T08:40:40.995Z,61.25
2019-01-08T08:43:13.003Z,60.25
2019-01-08T08:45:44.972Z,59.50
2019-01-08T08:48:16.993Z,60.75
2019-01-08T08:50:48.961Z,57.50
2019-01-08T08:53:20.971Z,52.25
2019-01-08T08:55:53.502Z,49.75
2019-01-08T08:58:25.647Z,46.00
2019-01-08T09:00:57.594Z,42.00
2019-01-08T09:03:29.776Z,42.25
2019-01-08T09:06:01.748Z,40.50
2019-01-08T09:08:33.724Z,39.25
2019-01-08T09:11:05.719Z,37.50
2019-01-08T09:13:37.771Z,36.25
2019-01-08T09:16:09.741Z,37.25
2019-01-08T09:18:41.724Z,36.50
2019-01-08T09:21:14.055Z,37.25
2019-01-08T09:23:46.289Z,37.50
2019-01-08T09:26:18.277Z,37.50
2019-01-08T09:28:50.263Z,39.75
2019-01-08T09:31:22.272Z,34.50
2019-01-08T09:33:54.419Z,37.50
2019-01-08T09:36:26.364Z,36.25
2019-01-08T09:38:58.444Z,36.50
2019-01-08T09:41:30.417Z,35.00
2019-01-08T09:44:02.445Z,35.75
2019-01-08T09:46:34.398Z,35.00
2019-01-08T09:49:06.364Z,35.75
2019-01-08T09:51:38.324Z,35.00
2019-01-08T09:54:10.303Z,36.00
2019-01-08T09:56:42.256Z,34.50
2019-01-08T09:59:14.375Z,34.75
2019-01-08T10:01:46.349Z,33.25
2019-01-08T10:04:18.435Z,34.00
2019-01-08T10:06:50.414Z,34.25
2019-01-08T10:09:22.384Z,32.00
2019-01-08T10:11:54.579Z,28.25
2019-01-08T10:14:26.548Z,27.50
2019-01-08T10:16:58.543Z,25.00
2019-01-08T10:19:30.507Z,28.00
2019-01-08T10:22:02.688Z,28.00
2019-01-08T10:24:34.957Z,26.25
2019-01-08T10:27:06.952Z,26.25
2019-01-08T10:29:38.907Z,26.50
2019-01-08T10:32:10.886Z,28.50
2019-01-08T10:34:42.859Z,26.00
2019-01-08T10:37:14.850Z,26.00
2019-01-08T10:39:46.874Z,26.75
2019-01-08T10:42:19.095Z,24.00
2019-01-08T10:44:51.080Z,24.75
2019-01-08T10:47:23.080Z,25.50
2019-01-08T10:49:55.055Z,24.75
2019-01-08T10:52:27.041Z,25.00
2019-01-08T10:54:59.044Z,24.50
2019-01-08T10:57:31.077Z,24.20
2019-01-08T11:00:03.044Z,24.25
2019-01-08T11:02:35.295Z,26.00
2019-01-08T11:05:07.279Z,24.00
2019-01-08T11:07:39.377Z,23.60
2019-01-08T11:10:11.370Z,24.40
2019-01-08T11:12:43.500Z,24.00
2019-01-08T11:15:15.478Z,25.00
2019-01-08T11:17:47.664Z,23.40
2019-01-08T11:20:19.661Z,23.60
2019-01-08T11:22:51.954Z,24.60
2019-01-08T11:25:24.106Z,23.60
2019-01-08T11:27:56.102Z,21.00
2019-01-08T11:30:28.085Z,19.20
2019-01-08T11:33:00.102Z,16.20
2019-01-08T11:35:32.077Z,17.40
2019-01-08T11:38:04.261Z,19.20
2019-01-08T11:40:36.245Z,19.40
2019-01-08T11:43:09.230Z,19.20
2019-01-08T11:45:41.211Z,19.80
2019-01-08T11:48:13.371Z,17.00
2019-01-08T11:50:45.379Z,17.80
2019-01-08T11:53:17.375Z,18.20
2019-01-08T11:55:49.337Z,17.40
2019-01-08T11:58:21.358Z,18.00
2019-01-08T12:00:53.496Z,17.80
2019-01-08T12:03:25.557Z,15.80
2019-01-08T12:05:57.561Z,16.40
2019-01-08T12:08:30.068Z,17.20
2019-01-08T12:11:02.034Z,17.40
2019-01-08T12:13:34.972Z,16.20
2019-01-08T12:16:06.945Z,16.40
2019-01-08T12:18:39.232Z,15.60
2019-01-08T12:21:11.196Z,16.20
2019-01-08T12:23:43.362Z,15.20
2019-01-08T12:26:15.568Z,17.00
2019-01-08T12:28:47.574Z,15.80
2019-01-08T12:31:19.556Z,16.20
2019-01-08T12:33:51.570Z,15.00
2019-01-08T12:36:23.550Z,15.20
2019-01-08T12:38:55.544Z,15.20
2019-01-08T12:41:27.506Z,15.00
2019-01-08T12:43:59.517Z,13.00
2019-01-08T12:46:31.494Z,16.00
2019-01-08T12:49:03.680Z,14.00
2019-01-08T12:51:35.674Z,14.20
2019-01-08T12:54:07.687Z,11.00
2019-01-08T12:56:39.679Z,11.00
2019-01-08T12:59:11.730Z,9.20
2019-01-08T13:01:43.686Z,9.80
2019-01-08T13:04:15.668Z,9.80
2019-01-08T13:06:47.642Z,10.00
2019-01-08T13:09:19.628Z,9.40
2019-01-08T13:11:51.793Z,7.20
2019-01-08T13:14:24.065Z,9.60
2019-01-08T13:16:57.029Z,8.60
2019-01-08T13:19:29.178Z,7.80
2019-01-08T13:22:01.150Z,8.40
2019-01-08T13:24:33.399Z,10.00
2019-01-08T13:27:05.564Z,6.40
2019-01-08T13:29:37.735Z,6.80
2019-01-08T13:32:09.687Z,8.60
2019-01-08T13:34:42.680Z,7.80
2019-01-08T13:37:14.663Z,9.00
2019-01-08T13:39:46.755Z,8.60
2019-01-08T13:42:18.817Z,8.00
2019-01-08T13:44:50.861Z,9.80
2019-01-08T13:47:22.912Z,7.00
2019-01-08T13:49:55.110Z,4.20
2019-01-08T13:52:27.058Z,8.80
2019-01-08T13:55:01.070Z,6.60
2019-01-08T13:57:33.111Z,6.80
2019-01-08T14:00:07.279Z,6.00
2019-01-08T14:02:40.222Z,5.20
2019-01-08T14:05:12.587Z,5.20
2019-01-08T14:07:44.896Z,5.20
2019-01-08T14:10:17.178Z,4.60
2019-01-08T14:12:51.431Z,3.00
2019-01-08T14:15:23.025Z,1.40
2019-01-08T14:17:55.159Z,4.60
2019-01-08T14:20:27.341Z,3.80
2019-01-08T14:22:59.496Z,3.00
2019-01-08T14:25:31.844Z,4.00
2019-01-08T14:28:04.350Z,3.40
2019-01-08T14:30:36.669Z,3.00
2019-01-08T14:33:08.842Z,4.20
2019-01-08T14:35:41.024Z,3.00
2019-01-08T14:38:13.364Z,2.80
2019-01-08T14:40:45.538Z,3.40
2019-01-08T14:43:17.713Z,3.40
2019-01-08T14:45:49.896Z,1.60
2019-01-08T14:48:22.141Z,2.20
2019-01-08T14:50:54.412Z,2.20
2019-01-08T14:53:26.663Z,2.40
2019-01-08T14:55:58.841Z,2.40
2019-01-08T14:58:31.404Z,2.20
2019-01-08T15:01:04.589Z,2.00
2019-01-08T15:03:36.726Z,2.20
2019-01-08T15:06:08.924Z,3.40
2019-01-08T15:08:41.267Z,2.20
2019-01-08T15:11:13.423Z,2.40
2019-01-08T15:13:45.597Z,3.20
2019-01-08T15:16:17.769Z,3.60
2019-01-08T15:18:50.038Z,4.40
2019-01-08T15:21:22.261Z,6.00
2019-01-08T15:23:54.602Z,5.00
2019-01-08T15:26:27.184Z,5.20
2019-01-08T15:28:59.758Z,5.00
2019-01-08T15:31:31.761Z,13.00
2019-01-08T15:34:03.766Z,25.40
2019-01-08T15:36:36.157Z,57.25
2019-01-08T15:39:08.320Z,83.00
2019-01-08T15:41:40.303Z,99.75
2019-01-08T15:44:15.351Z,102.25
2019-01-08T15:46:45.896Z,98.50
2019-01-08T15:49:17.887Z,99.50
2019-01-08T15:51:49.855Z,92.00
2019-01-08T15:54:21.947Z,91.25
2019-01-08T15:56:53.938Z,89.75
2019-01-08T15:59:26.939Z,89.75
2019-01-08T16:01:59.221Z,91.50
2019-01-08T16:04:32.331Z,90.75
2019-01-08T16:07:04.584Z,88.00
2019-01-08T16:09:36.778Z,87.50
2019-01-08T16:12:08.767Z,87.50
2019-01-08T16:14:40.758Z,82.75
2019-01-08T16:17:12.751Z,85.50
2019-01-08T16:19:44.756Z,82.00
2019-01-08T16:22:17.726Z,77.50
2019-01-08T16:24:49.745Z,80.75
2019-01-08T16:27:21.906Z,83.25
2019-01-08T16:29:54.195Z,80.50
2019-01-08T16:32:26.673Z,76.50
2019-01-08T16:34:59.821Z,74.75
2019-01-08T16:37:31.815Z,81.75
2019-01-08T16:40:03.986Z,84.50
2019-01-08T16:42:36.083Z,86.50
2019-01-08T16:45:08.064Z,90.25
2019-01-08T16:47:40.140Z,86.25
2019-01-08T16:50:12.151Z,86.50
2019-01-08T16:52:44.133Z,85.25
2019-01-08T16:55:16.236Z,81.50
2019-01-08T16:57:48.326Z,85.75
2019-01-08T17:00:20.324Z,86.50
2019-01-08T17:02:52.296Z,82.50
2019-01-08T17:05:24.298Z,82.50
2019-01-08T17:07:56.379Z,82.25
2019-01-08T17:10:28.543Z,85.00
2019-01-08T17:13:00.505Z,80.75
2019-01-08T17:15:32.584Z,85.25
2019-01-08T17:18:04.647Z,83.75
2019-01-08T17:20:37.753Z,77.50
2019-01-08T17:23:09.815Z,78.50
2019-01-08T17:25:47.794Z,78.25
2019-01-08T17:28:15.832Z,79.75
2019-01-08T17:30:48.140Z,72.25
2019-01-08T17:33:20.124Z,76.00
2019-01-08T17:35:52.234Z,76.75
2019-01-08T17:38:24.198Z,76.75
2019-01-08T17:40:56.362Z,73.25
2019-01-08T17:43:33.477Z,71.50
2019-01-08T17:46:02.078Z,72.25
2019-01-08T17:48:34.139Z,68.50
2019-01-08T17:51:06.132Z,67.00
2019-01-08T17:53:38.183Z,67.75
2019-01-08T17:56:10.253Z,66.75
2019-01-08T17:58:43.734Z,65.75
2019-01-08T18:01:23.557Z,63.50
2019-01-08T18:03:55.704Z,65.00
2019-01-08T18:06:27.712Z,67.25
2019-01-08T18:08:59.669Z,65.25
2019-01-08T18:11:32.176Z,64.00
2019-01-08T18:14:04.243Z,59.00
2019-01-08T18:16:36.242Z,63.00
2019-01-08T18:19:08.218Z,62.50
2019-01-08T18:21:40.438Z,62.75
2019-01-08T18:24:12.486Z,58.75
2019-01-08T18:26:44.600Z,58.50
2019-01-08T18:29:16.873Z,57.50
2019-01-08T18:31:49.150Z,60.00
2019-01-08T18:34:21.209Z,57.75
2019-01-08T18:36:53.288Z,56.25
2019-01-08T18:39:25.275Z,55.50
2019-01-08T18:41:57.425Z,56.50
2019-01-08T18:44:29.469Z,53.25
2019-01-08T18:47:01.542Z,52.75
2019-01-08T18:49:33.507Z,51.00
2019-01-08T18:52:05.496Z,54.25
2019-01-08T18:54:37.470Z,53.00
2019-01-08T18:57:09.458Z,50.50
2019-01-08T18:59:41.424Z,51.25
2019-01-08T19:02:13.406Z,52.50
2019-01-08T19:04:45.360Z,48.75
2019-01-08T19:07:17.464Z,51.75
2019-01-08T19:09:49.415Z,50.75
2019-01-08T19:12:21.596Z,51.00
2019-01-08T19:14:53.547Z,49.50
2019-01-08T19:17:25.549Z,49.00
2019-01-08T19:19:57.559Z,49.75
2019-01-08T19:22:29.518Z,48.00
2019-01-08T19:25:01.594Z,45.75
2019-01-08T19:27:33.758Z,44.25
2019-01-08T19:30:07.679Z,46.25
2019-01-08T19:32:40.310Z,48.75
2019-01-08T19:35:12.271Z,44.50
2019-01-08T19:37:44.244Z,44.25
2019-01-08T19:40:16.188Z,44.75
2019-01-08T19:42:48.347Z,44.75
2019-01-08T19:45:20.325Z,44.50
2019-01-08T19:47:52.327Z,42.50
2019-01-08T19:50:24.281Z,43.25
2019-01-08T19:52:56.356Z,43.00
2019-01-08T19:55:28.332Z,41.50
2019-01-08T19:58:00.338Z,41.00
2019-01-08T20:00:33.614Z,41.50
2019-01-08T20:03:05.708Z,42.25
2019-01-08T20:05:37.697Z,43.25
2019-01-08T20:08:10.668Z,42.00
2019-01-08T20:10:42.636Z,41.00
2019-01-08T20:13:14.799Z,39.75
2019-01-08T20:15:46.781Z,37.75
2019-01-08T20:18:18.805Z,36.00
2019-01-08T20:20:50.867Z,39.50
2019-01-08T20:23:22.845Z,37.50
2019-01-08T20:25:55.156Z,39.75
2019-01-08T20:28:27.262Z,36.75
2019-01-08T20:30:59.389Z,37.50
2019-01-08T20:33:31.556Z,38.50
2019-01-08T20:36:03.615Z,37.00
2019-01-08T20:38:35.722Z,39.50
2019-01-08T20:41:07.868Z,36.75
2019-01-08T20:43:40.019Z,36.75
2019-01-08T20:46:11.991Z,36.50
2019-01-08T20:48:43.975Z,36.50
2019-01-08T20:51:15.944Z,34.25
2019-01-08T20:53:48.044Z,36.25
2019-01-08T20:56:20.489Z,36.00
2019-01-08T20:58:52.508Z,37.75
2019-01-08T21:01:25.661Z,35.50
2019-01-08T21:03:57.762Z,36.00
2019-01-08T21:06:29.704Z,36.00
2019-01-08T21:09:01.795Z,36.25
2019-01-08T21:11:35.729Z,34.50
2019-01-08T21:14:09.101Z,35.00
2019-01-08T21:16:41.239Z,34.50
2019-01-08T21:19:13.211Z,35.25
2019-01-08T21:21:45.165Z,36.25
2019-01-08T21:24:17.208Z,34.00
2019-01-08T21:26:49.209Z,34.50
2019-01-08T21:29:21.198Z,34.25
2019-01-08T21:31:53.346Z,35.25
2019-01-08T21:34:25.522Z,34.50
2019-01-08T21:36:57.516Z,33.50
2019-01-08T21:39:29.617Z,34.75
2019-01-08T21:42:01.786Z,34.25
2019-01-08T21:44:34.071Z,34.00
2019-01-08T21:47:06.471Z,33.75
2019-01-08T21:49:38.462Z,32.50
2019-01-08T21:52:10.467Z,32.25
2019-01-08T21:54:42.444Z,33.75
2019-01-08T21:57:14.728Z,34.25
2019-01-08T21:59:46.731Z,34.25
2019-01-08T22:02:18.681Z,32.75
2019-01-08T22:04:53.293Z,32.50
2019-01-08T22:07:24.664Z,32.25
2019-01-08T22:09:56.653Z,31.00
2019-01-08T22:12:28.583Z,32.25
2019-01-08T22:15:00.739Z,16.50
2019-01-08T22:17:33.320Z,32.25
2019-01-08T22:20:06.673Z,32.00
2019-01-08T22:22:38.728Z,30.00
2019-01-08T22:25:10.702Z,31.50
2019-01-08T22:27:42.664Z,32.25
2019-01-08T22:30:14.678Z,31.00
2019-01-08T22:32:46.841Z,29.00
2019-01-08T22:35:19.270Z,29.75
2019-01-08T22:37:51.261Z,29.75
2019-01-08T22:40:23.226Z,31.50
2019-01-08T22:42:56.007Z,30.00
2019-01-08T22:45:28.478Z,28.25
2019-01-08T22:48:00.448Z,29.00
2019-01-08T22:50:32.425Z,28.50
2019-01-08T22:53:04.383Z,29.00
2019-01-08T22:55:36.375Z,29.75
2019-01-08T22:58:08.371Z,28.50
2019-01-08T23:00:53.523Z,28.50
2019-01-08T23:03:26.806Z,29.75
2019-01-08T23:05:58.867Z,25.75
2019-01-08T23:08:30.823Z,25.50
2019-01-08T23:11:02.915Z,29.25
2019-01-08T23:13:34.984Z,25.75
2019-01-08T23:16:07.171Z,28.00
2019-01-08T23:18:39.163Z,28.50
2019-01-08T23:21:11.162Z,28.00
2019-01-08T23:23:43.135Z,29.00
2019-01-08T23:26:15.264Z,27.50
2019-01-08T23:28:47.333Z,26.25
2019-01-08T23:31:19.413Z,26.75
2019-01-08T23:33:51.739Z,27.00
2019-01-08T23:36:23.945Z,23.25
2019-01-08T23:38:56.007Z,27.00
2019-01-08T23:41:28.475Z,27.00
2019-01-08T23:44:00.443Z,26.25
2019-01-08T23:46:32.435Z,26.25
2019-01-08T23:49:04.515Z,26.25
2019-01-08T23:51:36.505Z,27.75
2019-01-08T23:54:08.454Z,25.50
2019-01-08T23:56:40.455Z,27.50
2019-01-08T23:59:12.505Z,27.25
